sensor_id;sensor_type;location;lat;lon;timestamp;pressure;altitude;pressure_sealevel;temperature;humidity
70968;BME280;58629;48.808;8.820;2023-03-12T00:01:50;96733.22;;;-2.47;90.63
70968;BME280;58629;48.808;8.820;2023-03-12T00:04:15;96747.91;;;-2.51;90.03
70968;BME280;58629;48.808;8.820;2023-03-12T00:06:40;96741.78;;;-2.58;90.51
70968;BME280;58629;48.808;8.820;2023-03-12T00:09:05;96743.50;;;-2.50;91.10
70968;BME280;58629;48.808;8.820;2023-03-12T00:11:33;96739.97;;;-2.58;90.93
70968;BME280;58629;48.808;8.820;2023-03-12T00:13:58;96737.97;;;-2.49;92.16
70968;BME280;58629;48.808;8.820;2023-03-12T00:16:25;96737.31;;;-2.46;91.03
70968;BME280;58629;48.808;8.820;2023-03-12T00:18:52;96747.81;;;-2.54;89.82
70968;BME280;58629;48.808;8.820;2023-03-12T00:21:19;96745.47;;;-2.59;90.35
70968;BME280;58629;48.808;8.820;2023-03-12T00:23:46;96746.88;;;-2.62;89.72
70968;BME280;58629;48.808;8.820;2023-03-12T00:26:12;96741.13;;;-2.55;90.67
70968;BME280;58629;48.808;8.820;2023-03-12T00:28:38;96741.13;;;-2.55;90.84
70968;BME280;58629;48.808;8.820;2023-03-12T00:31:13;96738.94;;;-2.53;90.16
70968;BME280;58629;48.808;8.820;2023-03-12T00:33:39;96741.97;;;-2.51;90.02
70968;BME280;58629;48.808;8.820;2023-03-12T00:36:05;96726.09;;;-2.50;89.48
70968;BME280;58629;48.808;8.820;2023-03-12T00:38:30;96731.38;;;-2.46;89.73
70968;BME280;58629;48.808;8.820;2023-03-12T00:40:55;96730.94;;;-2.48;90.09
70968;BME280;58629;48.808;8.820;2023-03-12T00:43:21;96730.28;;;-2.45;89.19
70968;BME280;58629;48.808;8.820;2023-03-12T00:45:46;96729.13;;;-2.48;89.79
70968;BME280;58629;48.808;8.820;2023-03-12T00:48:11;96733.03;;;-2.54;89.13
70968;BME280;58629;48.808;8.820;2023-03-12T00:50:37;96734.34;;;-2.60;89.50
70968;BME280;58629;48.808;8.820;2023-03-12T00:53:02;96729.94;;;-2.59;89.98
70968;BME280;58629;48.808;8.820;2023-03-12T00:55:27;96724.59;;;-2.51;89.71
70968;BME280;58629;48.808;8.820;2023-03-12T00:57:52;96733.88;;;-2.50;89.42
70968;BME280;58629;48.808;8.820;2023-03-12T01:00:18;96727.25;;;-2.47;89.72
70968;BME280;58629;48.808;8.820;2023-03-12T01:02:43;96723.44;;;-2.38;90.09
70968;BME280;58629;48.808;8.820;2023-03-12T01:05:10;96730.81;;;-2.40;90.46
70968;BME280;58629;48.808;8.820;2023-03-12T01:07:36;96728.63;;;-2.38;90.43
70968;BME280;58629;48.808;8.820;2023-03-12T01:10:02;96719.13;;;-2.34;90.31
70968;BME280;58629;48.808;8.820;2023-03-12T01:12:28;96718.09;;;-2.29;91.07
70968;BME280;58629;48.808;8.820;2023-03-12T01:14:53;96721.38;;;-2.32;90.36
70968;BME280;58629;48.808;8.820;2023-03-12T01:17:19;96724.72;;;-2.32;91.60
70968;BME280;58629;48.808;8.820;2023-03-12T01:19:44;96724.72;;;-2.32;91.96
70968;BME280;58629;48.808;8.820;2023-03-12T01:22:09;96727.41;;;-2.28;91.48
70968;BME280;58629;48.808;8.820;2023-03-12T01:24:35;96737.44;;;-2.27;90.86
70968;BME280;58629;48.808;8.820;2023-03-12T01:27:00;96727.13;;;-2.23;90.81
70968;BME280;58629;48.808;8.820;2023-03-12T01:29:25;96736.19;;;-2.17;90.50
70968;BME280;58629;48.808;8.820;2023-03-12T01:31:50;96734.00;;;-2.15;90.36
70968;BME280;58629;48.808;8.820;2023-03-12T01:34:17;96734.94;;;-2.08;90.93
70968;BME280;58629;48.808;8.820;2023-03-12T01:36:42;96728.41;;;-2.02;91.32
70968;BME280;58629;48.808;8.820;2023-03-12T01:39:09;96734.22;;;-2.08;91.54
70968;BME280;58629;48.808;8.820;2023-03-12T01:41:35;96729.75;;;-2.08;91.81
70968;BME280;58629;48.808;8.820;2023-03-12T01:44:01;96736.88;;;-2.05;91.55
70968;BME280;58629;48.808;8.820;2023-03-12T01:46:28;96730.16;;;-2.06;90.74
70968;BME280;58629;48.808;8.820;2023-03-12T01:49:15;96724.97;;;-2.06;91.07
70968;BME280;58629;48.808;8.820;2023-03-12T01:54:21;96724.75;;;-2.01;89.85
70968;BME280;58629;48.808;8.820;2023-03-12T01:56:48;96719.13;;;-2.03;88.12
70968;BME280;58629;48.808;8.820;2023-03-12T01:59:17;96727.69;;;-2.02;88.98
70968;BME280;58629;48.808;8.820;2023-03-12T02:01:45;96722.22;;;-1.97;89.91
70968;BME280;58629;48.808;8.820;2023-03-12T02:04:11;96729.03;;;-1.93;90.52
70968;BME280;58629;48.808;8.820;2023-03-12T02:06:50;96720.75;;;-1.98;90.32
70968;BME280;58629;48.808;8.820;2023-03-12T02:09:19;96726.09;;;-1.91;91.68
70968;BME280;58629;48.808;8.820;2023-03-12T02:11:45;96713.44;;;-1.93;91.36
70968;BME280;58629;48.808;8.820;2023-03-12T02:14:11;96714.19;;;-1.92;92.05
70968;BME280;58629;48.808;8.820;2023-03-12T02:16:36;96716.13;;;-1.89;91.75
70968;BME280;58629;48.808;8.820;2023-03-12T02:19:03;96718.03;;;-1.86;91.86
70968;BME280;58629;48.808;8.820;2023-03-12T02:21:33;96710.59;;;-1.88;91.94
70968;BME280;58629;48.808;8.820;2023-03-12T02:24:06;96712.84;;;-1.86;92.03
70968;BME280;58629;48.808;8.820;2023-03-12T02:26:35;96704.63;;;-1.88;91.67
70968;BME280;58629;48.808;8.820;2023-03-12T02:29:01;96708.84;;;-1.84;92.03
70968;BME280;58629;48.808;8.820;2023-03-12T02:31:42;96708.06;;;-1.84;91.58
70968;BME280;58629;48.808;8.820;2023-03-12T02:34:09;96711.00;;;-1.86;92.22
70968;BME280;58629;48.808;8.820;2023-03-12T02:36:34;96709.09;;;-1.89;90.91
70968;BME280;58629;48.808;8.820;2023-03-12T02:39:00;96720.97;;;-1.88;91.96
70968;BME280;58629;48.808;8.820;2023-03-12T02:41:28;96709.19;;;-1.85;91.63
70968;BME280;58629;48.808;8.820;2023-03-12T02:44:10;96712.13;;;-1.87;91.62
70968;BME280;58629;48.808;8.820;2023-03-12T02:46:42;96711.44;;;-1.84;91.74
70968;BME280;58629;48.808;8.820;2023-03-12T02:49:09;96709.66;;;-1.80;92.13
70968;BME280;58629;48.808;8.820;2023-03-12T02:51:39;96707.16;;;-1.76;92.04
70968;BME280;58629;48.808;8.820;2023-03-12T02:54:05;96704.25;;;-1.74;91.76
70968;BME280;58629;48.808;8.820;2023-03-12T02:56:31;96704.97;;;-1.74;91.70
70968;BME280;58629;48.808;8.820;2023-03-12T02:58:56;96700.13;;;-1.76;90.89
70968;BME280;58629;48.808;8.820;2023-03-12T03:01:22;96702.06;;;-1.72;91.02
70968;BME280;58629;48.808;8.820;2023-03-12T03:03:48;96702.06;;;-1.72;90.63
70968;BME280;58629;48.808;8.820;2023-03-12T03:06:14;96698.03;;;-1.70;90.04
70968;BME280;58629;48.808;8.820;2023-03-12T03:08:40;96689.50;;;-1.70;89.84
70968;BME280;58629;48.808;8.820;2023-03-12T03:11:06;96687.31;;;-1.68;89.88
70968;BME280;58629;48.808;8.820;2023-03-12T03:13:32;96679.19;;;-1.67;89.04
70968;BME280;58629;48.808;8.820;2023-03-12T03:15:57;96684.03;;;-1.65;90.60
70968;BME280;58629;48.808;8.820;2023-03-12T03:18:24;96684.78;;;-1.65;90.60
70968;BME280;58629;48.808;8.820;2023-03-12T03:20:57;96684.13;;;-1.62;90.86
70968;BME280;58629;48.808;8.820;2023-03-12T03:23:23;96693.16;;;-1.56;90.41
70968;BME280;58629;48.808;8.820;2023-03-12T03:25:49;96699.28;;;-1.64;89.12
70968;BME280;58629;48.808;8.820;2023-03-12T03:28:16;96701.38;;;-1.69;88.53
70968;BME280;58629;48.808;8.820;2023-03-12T03:30:42;96703.13;;;-1.73;88.42
70968;BME280;58629;48.808;8.820;2023-03-12T03:33:07;96700.03;;;-1.63;90.90
70968;BME280;58629;48.808;8.820;2023-03-12T03:35:33;96703.72;;;-1.64;89.56
70968;BME280;58629;48.808;8.820;2023-03-12T03:37:59;96693.50;;;-1.57;89.15
70968;BME280;58629;48.808;8.820;2023-03-12T03:40:24;96699.16;;;-1.52;90.00
70968;BME280;58629;48.808;8.820;2023-03-12T03:42:49;96682.59;;;-1.47;89.49
70968;BME280;58629;48.808;8.820;2023-03-12T03:45:15;96681.16;;;-1.45;89.08
70968;BME280;58629;48.808;8.820;2023-03-12T03:47:40;96667.56;;;-1.38;89.40
70968;BME280;58629;48.808;8.820;2023-03-12T03:50:05;96665.31;;;-1.40;88.52
70968;BME280;58629;48.808;8.820;2023-03-12T03:52:31;96669.50;;;-1.35;88.99
70968;BME280;58629;48.808;8.820;2023-03-12T03:54:57;96670.16;;;-1.38;88.72
70968;BME280;58629;48.808;8.820;2023-03-12T03:57:23;96665.06;;;-1.35;88.81
70968;BME280;58629;48.808;8.820;2023-03-12T03:59:49;96672.09;;;-1.35;87.54
70968;BME280;58629;48.808;8.820;2023-03-12T04:02:14;96661.34;;;-1.34;88.10
70968;BME280;58629;48.808;8.820;2023-03-12T04:04:39;96671.06;;;-1.31;88.25
70968;BME280;58629;48.808;8.820;2023-03-12T04:07:04;96672.69;;;-1.23;87.94
70968;BME280;58629;48.808;8.820;2023-03-12T04:09:30;96657.88;;;-1.22;87.91
70968;BME280;58629;48.808;8.820;2023-03-12T04:11:55;96670.44;;;-1.24;88.18
70968;BME280;58629;48.808;8.820;2023-03-12T04:14:20;96663.41;;;-1.24;87.51
70968;BME280;58629;48.808;8.820;2023-03-12T04:16:46;96671.28;;;-1.20;88.10
70968;BME280;58629;48.808;8.820;2023-03-12T04:19:11;96671.03;;;-1.15;87.93
70968;BME280;58629;48.808;8.820;2023-03-12T04:21:36;96679.34;;;-1.06;88.42
70968;BME280;58629;48.808;8.820;2023-03-12T04:24:04;96663.09;;;-1.03;87.95
70968;BME280;58629;48.808;8.820;2023-03-12T04:26:29;96666.09;;;-1.01;87.58
70968;BME280;58629;48.808;8.820;2023-03-12T04:28:55;96666.56;;;-0.96;88.24
70968;BME280;58629;48.808;8.820;2023-03-12T04:31:20;96669.25;;;-0.92;87.97
70968;BME280;58629;48.808;8.820;2023-03-12T04:33:46;96670.00;;;-0.92;88.41
70968;BME280;58629;48.808;8.820;2023-03-12T04:36:11;96667.72;;;-0.93;87.92
70968;BME280;58629;48.808;8.820;2023-03-12T04:38:37;96672.59;;;-0.92;88.33
70968;BME280;58629;48.808;8.820;2023-03-12T04:41:06;96672.66;;;-0.88;88.44
70968;BME280;58629;48.808;8.820;2023-03-12T04:43:32;96674.91;;;-0.87;89.09
70968;BME280;58629;48.808;8.820;2023-03-12T04:45:58;96678.22;;;-0.90;88.81
70968;BME280;58629;48.808;8.820;2023-03-12T04:48:24;96682.34;;;-0.85;89.74
70968;BME280;58629;48.808;8.820;2023-03-12T04:50:50;96674.72;;;-0.78;89.05
70968;BME280;58629;48.808;8.820;2023-03-12T04:53:15;96679.16;;;-0.78;89.49
70968;BME280;58629;48.808;8.820;2023-03-12T04:55:41;96667.66;;;-0.77;89.16
70968;BME280;58629;48.808;8.820;2023-03-12T04:58:06;96670.69;;;-0.75;89.20
70968;BME280;58629;48.808;8.820;2023-03-12T05:00:31;96669.97;;;-0.72;90.05
70968;BME280;58629;48.808;8.820;2023-03-12T05:02:57;96667.78;;;-0.70;89.47
70968;BME280;58629;48.808;8.820;2023-03-12T05:05:22;96669.97;;;-0.72;90.28
70968;BME280;58629;48.808;8.820;2023-03-12T05:07:47;96677.97;;;-0.62;91.01
70968;BME280;58629;48.808;8.820;2023-03-12T05:10:13;96672.13;;;-0.55;91.33
70968;BME280;58629;48.808;8.820;2023-03-12T05:12:38;96672.13;;;-0.55;90.98
70968;BME280;58629;48.808;8.820;2023-03-12T05:15:04;96664.75;;;-0.53;91.11
70968;BME280;58629;48.808;8.820;2023-03-12T05:17:29;96661.88;;;-0.48;90.97
70968;BME280;58629;48.808;8.820;2023-03-12T05:19:54;96670.09;;;-0.46;91.90
70968;BME280;58629;48.808;8.820;2023-03-12T05:22:20;96667.44;;;-0.50;91.92
70968;BME280;58629;48.808;8.820;2023-03-12T05:24:45;96674.19;;;-0.45;92.50
70968;BME280;58629;48.808;8.820;2023-03-12T05:27:10;96668.25;;;-0.46;92.92
70968;BME280;58629;48.808;8.820;2023-03-12T05:29:36;96668.97;;;-0.45;92.99
70968;BME280;58629;48.808;8.820;2023-03-12T05:32:02;96667.59;;;-0.39;93.20
70968;BME280;58629;48.808;8.820;2023-03-12T05:34:27;96672.13;;;-0.36;94.12
70968;BME280;58629;48.808;8.820;2023-03-12T05:36:55;96663.25;;;-0.32;94.32
70968;BME280;58629;48.808;8.820;2023-03-12T05:39:20;96670.03;;;-0.27;94.55
70968;BME280;58629;48.808;8.820;2023-03-12T05:41:46;96661.13;;;-0.26;94.48
70968;BME280;58629;48.808;8.820;2023-03-12T05:44:12;96663.03;;;-0.23;95.16
70968;BME280;58629;48.808;8.820;2023-03-12T05:46:37;96670.97;;;-0.16;95.37
70968;BME280;58629;48.808;8.820;2023-03-12T05:49:03;96661.66;;;-0.17;94.46
70968;BME280;58629;48.808;8.820;2023-03-12T05:51:28;96661.38;;;-0.12;95.20
70968;BME280;58629;48.808;8.820;2023-03-12T05:53:53;96664.66;;;-0.15;94.08
70968;BME280;58629;48.808;8.820;2023-03-12T05:56:18;96661.38;;;-0.12;95.02
70968;BME280;58629;48.808;8.820;2023-03-12T05:58:47;96672.59;;;-0.08;95.66
70968;BME280;58629;48.808;8.820;2023-03-12T06:01:17;96675.66;;;-0.03;95.48
70968;BME280;58629;48.808;8.820;2023-03-12T06:03:42;96667.78;;;-0.06;94.77
70968;BME280;58629;48.808;8.820;2023-03-12T06:06:08;96661.78;;;-0.10;94.39
70968;BME280;58629;48.808;8.820;2023-03-12T06:08:34;96662.59;;;-0.06;95.46
70968;BME280;58629;48.808;8.820;2023-03-12T06:10:59;96657.84;;;-0.01;95.40
70968;BME280;58629;48.808;8.820;2023-03-12T06:13:24;96656.00;;;0.00;95.44
70968;BME280;58629;48.808;8.820;2023-03-12T06:15:51;96662.38;;;0.06;95.73
70968;BME280;58629;48.808;8.820;2023-03-12T06:18:16;96660.53;;;0.07;95.65
70968;BME280;58629;48.808;8.820;2023-03-12T06:20:42;96663.25;;;0.14;96.15
70968;BME280;58629;48.808;8.820;2023-03-12T06:23:07;96643.63;;;0.20;95.87
70968;BME280;58629;48.808;8.820;2023-03-12T06:25:32;96647.72;;;0.21;95.42
70968;BME280;58629;48.808;8.820;2023-03-12T06:27:58;96639.56;;;0.22;95.39
70968;BME280;58629;48.808;8.820;2023-03-12T06:30:23;96651.13;;;0.25;94.74
70968;BME280;58629;48.808;8.820;2023-03-12T06:32:49;96643.31;;;0.25;95.56
70968;BME280;58629;48.808;8.820;2023-03-12T06:35:14;96647.13;;;0.31;95.19
70968;BME280;58629;48.808;8.820;2023-03-12T06:37:39;96642.38;;;0.36;95.58
70968;BME280;58629;48.808;8.820;2023-03-12T06:40:05;96647.28;;;0.41;95.83
70968;BME280;58629;48.808;8.820;2023-03-12T06:42:34;96641.47;;;0.51;96.27
70968;BME280;58629;48.808;8.820;2023-03-12T06:44:59;96643.00;;;0.56;96.18
70968;BME280;58629;48.808;8.820;2023-03-12T06:47:24;96645.28;;;0.57;96.27
70968;BME280;58629;48.808;8.820;2023-03-12T06:49:49;96651.34;;;0.65;96.30
70968;BME280;58629;48.808;8.820;2023-03-12T06:52:15;96644.72;;;0.71;95.81
70968;BME280;58629;48.808;8.820;2023-03-12T06:54:40;96654.06;;;0.75;96.10
70968;BME280;58629;48.808;8.820;2023-03-12T06:57:05;96645.13;;;0.76;95.75
70968;BME280;58629;48.808;8.820;2023-03-12T06:59:31;96658.25;;;0.83;95.86
70968;BME280;58629;48.808;8.820;2023-03-12T07:01:56;96654.19;;;0.86;95.71
70968;BME280;58629;48.808;8.820;2023-03-12T07:04:21;96652.38;;;0.90;95.64
70968;BME280;58629;48.808;8.820;2023-03-12T07:06:47;96651.72;;;0.97;96.36
70968;BME280;58629;48.808;8.820;2023-03-12T07:09:15;96646.56;;;1.04;96.09
70968;BME280;58629;48.808;8.820;2023-03-12T07:11:41;96660.84;;;1.13;96.31
70968;BME280;58629;48.808;8.820;2023-03-12T07:14:06;96657.97;;;1.22;95.53
70968;BME280;58629;48.808;8.820;2023-03-12T07:16:31;96666.59;;;1.29;94.78
70968;BME280;58629;48.808;8.820;2023-03-12T07:18:57;96672.63;;;1.37;94.57
70968;BME280;58629;48.808;8.820;2023-03-12T07:21:23;96665.28;;;1.46;94.73
70968;BME280;58629;48.808;8.820;2023-03-12T07:23:49;96658.28;;;1.53;94.61
70968;BME280;58629;48.808;8.820;2023-03-12T07:26:15;96663.22;;;1.62;94.96
70968;BME280;58629;48.808;8.820;2023-03-12T07:28:40;96659.59;;;1.73;94.30
70968;BME280;58629;48.808;8.820;2023-03-12T07:31:05;96659.34;;;1.89;94.44
70968;BME280;58629;48.808;8.820;2023-03-12T07:33:31;96653.84;;;2.01;94.56
70968;BME280;58629;48.808;8.820;2023-03-12T07:35:56;96659.59;;;2.21;95.32
70968;BME280;58629;48.808;8.820;2023-03-12T07:38:22;96663.47;;;2.37;94.85
70968;BME280;58629;48.808;8.820;2023-03-12T07:40:52;96659.06;;;2.52;94.09
70968;BME280;58629;48.808;8.820;2023-03-12T07:43:18;96651.28;;;2.62;94.96
70968;BME280;58629;48.808;8.820;2023-03-12T07:45:43;96656.91;;;2.68;95.59
70968;BME280;58629;48.808;8.820;2023-03-12T07:48:08;96653.97;;;2.77;94.48
70968;BME280;58629;48.808;8.820;2023-03-12T07:50:35;96645.81;;;2.85;94.93
70968;BME280;58629;48.808;8.820;2023-03-12T07:53:01;96650.28;;;2.92;94.23
70968;BME280;58629;48.808;8.820;2023-03-12T07:55:26;96652.22;;;3.02;93.97
70968;BME280;58629;48.808;8.820;2023-03-12T07:57:51;96656.72;;;3.12;93.74
70968;BME280;58629;48.808;8.820;2023-03-12T08:00:18;96659.72;;;3.14;93.70
70968;BME280;58629;48.808;8.820;2023-03-12T08:02:43;96656.38;;;3.17;93.63
70968;BME280;58629;48.808;8.820;2023-03-12T08:05:09;96656.00;;;3.18;92.61
70968;BME280;58629;48.808;8.820;2023-03-12T08:07:34;96652.66;;;3.25;92.89
70968;BME280;58629;48.808;8.820;2023-03-12T08:10:01;96666.19;;;3.44;97.36
70968;BME280;58629;48.808;8.820;2023-03-12T08:12:27;96660.59;;;3.57;97.09
70968;BME280;58629;48.808;8.820;2023-03-12T08:14:52;96656.88;;;3.68;97.42
70968;BME280;58629;48.808;8.820;2023-03-12T08:17:17;96669.97;;;3.75;96.88
70968;BME280;58629;48.808;8.820;2023-03-12T08:19:42;96675.59;;;3.91;97.27
70968;BME280;58629;48.808;8.820;2023-03-12T08:22:08;96670.00;;;4.03;96.22
70968;BME280;58629;48.808;8.820;2023-03-12T08:24:33;96673.00;;;4.19;95.81
70968;BME280;58629;48.808;8.820;2023-03-12T08:26:59;96670.38;;;4.37;96.05
70968;BME280;58629;48.808;8.820;2023-03-12T08:29:25;96684.50;;;4.92;99.60
70968;BME280;58629;48.808;8.820;2023-03-12T08:31:50;96676.81;;;5.40;98.26
70968;BME280;58629;48.808;8.820;2023-03-12T08:34:15;96683.31;;;5.87;95.54
70968;BME280;58629;48.808;8.820;2023-03-12T08:36:41;96688.66;;;6.28;92.18
70968;BME280;58629;48.808;8.820;2023-03-12T08:39:06;96685.75;;;6.59;89.29
70968;BME280;58629;48.808;8.820;2023-03-12T08:41:31;96676.75;;;6.94;87.79
70968;BME280;58629;48.808;8.820;2023-03-12T08:43:56;96670.00;;;7.27;85.76
70968;BME280;58629;48.808;8.820;2023-03-12T08:46:22;96679.03;;;7.56;83.76
70968;BME280;58629;48.808;8.820;2023-03-12T08:48:47;96672.72;;;7.76;82.50
70968;BME280;58629;48.808;8.820;2023-03-12T08:51:12;96674.75;;;7.92;81.03
70968;BME280;58629;48.808;8.820;2023-03-12T08:53:38;96677.41;;;8.15;80.21
70968;BME280;58629;48.808;8.820;2023-03-12T08:56:04;96682.84;;;8.31;79.11
70968;BME280;58629;48.808;8.820;2023-03-12T08:58:30;96675.84;;;8.44;78.76
70968;BME280;58629;48.808;8.820;2023-03-12T09:00:55;96672.28;;;8.54;77.63
70968;BME280;58629;48.808;8.820;2023-03-12T09:03:21;96671.53;;;8.54;74.48
70968;BME280;58629;48.808;8.820;2023-03-12T09:05:47;96670.75;;;8.77;77.13
70968;BME280;58629;48.808;8.820;2023-03-12T09:08:12;96668.28;;;8.89;76.54
70968;BME280;58629;48.808;8.820;2023-03-12T09:10:38;96678.19;;;8.62;77.92
70968;BME280;58629;48.808;8.820;2023-03-12T09:13:04;96679.19;;;8.68;76.86
70968;BME280;58629;48.808;8.820;2023-03-12T09:15:30;96687.94;;;8.65;77.60
70968;BME280;58629;48.808;8.820;2023-03-12T09:17:56;96678.72;;;8.30;76.93
70968;BME280;58629;48.808;8.820;2023-03-12T09:20:22;96680.56;;;8.07;79.34
70968;BME280;58629;48.808;8.820;2023-03-12T09:22:47;96688.44;;;7.83;80.49
70968;BME280;58629;48.808;8.820;2023-03-12T09:25:13;96685.81;;;7.53;82.54
70968;BME280;58629;48.808;8.820;2023-03-12T09:27:40;96686.16;;;7.29;84.63
70968;BME280;58629;48.808;8.820;2023-03-12T09:30:08;96688.59;;;7.13;85.55
70968;BME280;58629;48.808;8.820;2023-03-12T09:32:34;96697.47;;;6.92;87.54
70968;BME280;58629;48.808;8.820;2023-03-12T09:34:59;96692.28;;;6.85;88.43
70968;BME280;58629;48.808;8.820;2023-03-12T09:37:25;96696.34;;;6.93;90.44
70968;BME280;58629;48.808;8.820;2023-03-12T09:39:51;96704.22;;;6.93;89.85
70968;BME280;58629;48.808;8.820;2023-03-12T09:42:26;96695.88;;;6.98;90.84
70968;BME280;58629;48.808;8.820;2023-03-12T09:44:55;96700.59;;;7.14;92.20
70968;BME280;58629;48.808;8.820;2023-03-12T09:47:27;96699.09;;;7.16;92.88
70968;BME280;58629;48.808;8.820;2023-03-12T09:49:57;96702.31;;;7.27;93.49
70968;BME280;58629;48.808;8.820;2023-03-12T09:52:32;96695.72;;;7.46;93.40
70968;BME280;58629;48.808;8.820;2023-03-12T09:55:19;96695.47;;;7.63;93.74
70968;BME280;58629;48.808;8.820;2023-03-12T09:57:47;96706.84;;;7.60;93.34
70968;BME280;58629;48.808;8.820;2023-03-12T10:00:21;96696.13;;;7.71;94.52
70968;BME280;58629;48.808;8.820;2023-03-12T10:05:50;96700.03;;;7.89;95.71
70968;BME280;58629;48.808;8.820;2023-03-12T10:08:42;96707.44;;;7.98;95.05
70968;BME280;58629;48.808;8.820;2023-03-12T10:22:16;96725.66;;;8.16;95.43
70968;BME280;58629;48.808;8.820;2023-03-12T10:27:33;96730.16;;;8.15;96.87
70968;BME280;58629;48.808;8.820;2023-03-12T10:30:02;96736.81;;;7.97;99.02
70968;BME280;58629;48.808;8.820;2023-03-12T10:32:48;96743.66;;;7.94;99.33
70968;BME280;58629;48.808;8.820;2023-03-12T10:35:18;96755.56;;;7.75;98.59
70968;BME280;58629;48.808;8.820;2023-03-12T10:37:47;96754.75;;;7.78;100.00
70968;BME280;58629;48.808;8.820;2023-03-12T10:40:16;96760.31;;;7.87;100.00
70968;BME280;58629;48.808;8.820;2023-03-12T10:42:42;96758.03;;;7.89;98.79
70968;BME280;58629;48.808;8.820;2023-03-12T10:45:13;96759.19;;;8.15;100.00
70968;BME280;58629;48.808;8.820;2023-03-12T10:47:43;96755.63;;;8.29;99.06
70968;BME280;58629;48.808;8.820;2023-03-12T10:50:18;96770.47;;;8.42;100.00
70968;BME280;58629;48.808;8.820;2023-03-12T10:52:45;96766.41;;;8.38;97.52
70968;BME280;58629;48.808;8.820;2023-03-12T10:57:43;96768.16;;;8.71;97.39
70968;BME280;58629;48.808;8.820;2023-03-12T11:00:15;96766.59;;;8.73;96.05
70968;BME280;58629;48.808;8.820;2023-03-12T11:02:45;96780.03;;;8.59;97.66
70968;BME280;58629;48.808;8.820;2023-03-12T11:06:04;96770.91;;;8.64;98.42
70968;BME280;58629;48.808;8.820;2023-03-12T11:08:45;96781.34;;;8.71;96.29
70968;BME280;58629;48.808;8.820;2023-03-12T11:11:31;96776.88;;;8.68;96.55
70968;BME280;58629;48.808;8.820;2023-03-12T11:16:39;96778.25;;;8.76;97.41
70968;BME280;58629;48.808;8.820;2023-03-12T11:19:04;96776.88;;;8.91;96.81
70968;BME280;58629;48.808;8.820;2023-03-12T11:21:32;96779.88;;;8.93;94.45
70968;BME280;58629;48.808;8.820;2023-03-12T11:24:13;96790.16;;;9.07;95.88
70968;BME280;58629;48.808;8.820;2023-03-12T11:26:47;96788.97;;;9.12;94.28
70968;BME280;58629;48.808;8.820;2023-03-12T11:29:37;96780.59;;;8.94;92.71
70968;BME280;58629;48.808;8.820;2023-03-12T11:32:30;96785.31;;;8.83;93.93
70968;BME280;58629;48.808;8.820;2023-03-12T11:34:58;96782.44;;;8.73;94.20
70968;BME280;58629;48.808;8.820;2023-03-12T11:37:35;96780.09;;;8.79;94.71
70968;BME280;58629;48.808;8.820;2023-03-12T11:56:43;96780.72;;;9.29;89.15
70968;BME280;58629;48.808;8.820;2023-03-12T12:07:45;96768.78;;;9.21;89.29
70968;BME280;58629;48.808;8.820;2023-03-12T12:24:18;96756.81;;;9.17;91.16
70968;BME280;58629;48.808;8.820;2023-03-12T12:26:58;96747.66;;;9.21;91.45
70968;BME280;58629;48.808;8.820;2023-03-12T12:37:54;96736.97;;;9.09;90.71
70968;BME280;58629;48.808;8.820;2023-03-12T12:40:34;96736.00;;;8.99;91.76
70968;BME280;58629;48.808;8.820;2023-03-12T12:45:47;96755.66;;;8.75;92.49
70968;BME280;58629;48.808;8.820;2023-03-12T12:48:20;96766.66;;;8.70;95.36
70968;BME280;58629;48.808;8.820;2023-03-12T12:50:48;96765.03;;;8.76;96.48
70968;BME280;58629;48.808;8.820;2023-03-12T12:53:25;96770.03;;;8.94;97.28
70968;BME280;58629;48.808;8.820;2023-03-12T12:56:04;96755.47;;;9.05;95.17
70968;BME280;58629;48.808;8.820;2023-03-12T12:58:58;96752.94;;;9.41;94.73
70968;BME280;58629;48.808;8.820;2023-03-12T13:01:28;96757.63;;;9.53;93.13
70968;BME280;58629;48.808;8.820;2023-03-12T13:04:01;96759.91;;;9.71;90.22
70968;BME280;58629;48.808;8.820;2023-03-12T13:06:28;96753.28;;;9.63;86.92
70968;BME280;58629;48.808;8.820;2023-03-12T13:08:59;96763.72;;;9.70;87.60
70968;BME280;58629;48.808;8.820;2023-03-12T13:11:37;96753.47;;;9.72;86.50
70968;BME280;58629;48.808;8.820;2023-03-12T13:16:35;96762.09;;;9.56;87.13
70968;BME280;58629;48.808;8.820;2023-03-12T13:24:32;96744.13;;;9.47;84.59
70968;BME280;58629;48.808;8.820;2023-03-12T13:29:41;96738.66;;;9.94;83.92
70968;BME280;58629;48.808;8.820;2023-03-12T13:45:29;96749.66;;;9.73;84.00
70968;BME280;58629;48.808;8.820;2023-03-12T13:47:58;96747.72;;;9.57;84.71
70968;BME280;58629;48.808;8.820;2023-03-12T13:50:25;96753.56;;;9.48;85.15
70968;BME280;58629;48.808;8.820;2023-03-12T13:53:15;96755.72;;;9.34;86.90
70968;BME280;58629;48.808;8.820;2023-03-12T13:55:41;96750.78;;;9.36;85.67
70968;BME280;58629;48.808;8.820;2023-03-12T13:58:15;96753.16;;;9.30;88.41
70968;BME280;58629;48.808;8.820;2023-03-12T14:00:55;96752.56;;;9.42;87.76
70968;BME280;58629;48.808;8.820;2023-03-12T14:03:25;96755.88;;;9.46;88.86
70968;BME280;58629;48.808;8.820;2023-03-12T14:06:20;96760.25;;;9.53;91.44
70968;BME280;58629;48.808;8.820;2023-03-12T14:11:40;96757.59;;;9.73;90.41
70968;BME280;58629;48.808;8.820;2023-03-12T14:14:30;96753.41;;;9.75;89.04
70968;BME280;58629;48.808;8.820;2023-03-12T14:17:02;96752.00;;;9.87;88.85
70968;BME280;58629;48.808;8.820;2023-03-12T14:19:32;96756.09;;;9.91;85.38
70968;BME280;58629;48.808;8.820;2023-03-12T14:22:06;96764.09;;;9.88;89.25
70968;BME280;58629;48.808;8.820;2023-03-12T14:24:40;96756.19;;;10.04;88.98
70968;BME280;58629;48.808;8.820;2023-03-12T14:27:18;96768.31;;;10.21;85.73
70968;BME280;58629;48.808;8.820;2023-03-12T14:29:51;96762.38;;;10.65;85.62
70968;BME280;58629;48.808;8.820;2023-03-12T14:32:22;96755.56;;;10.96;81.94
70968;BME280;58629;48.808;8.820;2023-03-12T14:35:16;96746.81;;;11.12;79.90
70968;BME280;58629;48.808;8.820;2023-03-12T14:37:53;96742.63;;;11.27;78.90
70968;BME280;58629;48.808;8.820;2023-03-12T14:40:59;96745.16;;;11.47;77.62
70968;BME280;58629;48.808;8.820;2023-03-12T14:43:26;96740.25;;;11.45;77.98
70968;BME280;58629;48.808;8.820;2023-03-12T14:45:57;96746.56;;;11.64;71.54
70968;BME280;58629;48.808;8.820;2023-03-12T14:48:30;96742.38;;;11.66;71.77
70968;BME280;58629;48.808;8.820;2023-03-12T14:50:57;96726.19;;;11.61;70.27
70968;BME280;58629;48.808;8.820;2023-03-12T14:58:42;96753.75;;;11.22;73.09